sensor_id;sensor_type;location;lat;lon;timestamp;pressure;altitude;pressure_sealevel;temperature;humidity
61963;BME280;47927;42.646;23.096;2023-02-02T00:01:34;92145.13;;;4.64;48.16
61963;BME280;47927;42.646;23.096;2023-02-02T00:04:00;92148.66;;;4.60;48.35
61963;BME280;47927;42.646;23.096;2023-02-02T00:06:27;92145.44;;;4.63;48.48
61963;BME280;47927;42.646;23.096;2023-02-02T00:08:55;92134.91;;;4.68;48.35
61963;BME280;47927;42.646;23.096;2023-02-02T00:11:22;92129.09;;;4.59;48.72
61963;BME280;47927;42.646;23.096;2023-02-02T00:13:48;92147.72;;;4.64;48.83
61963;BME280;47927;42.646;23.096;2023-02-02T00:18:56;92148.22;;;4.57;48.72
61963;BME280;47927;42.646;23.096;2023-02-02T00:21:23;92144.78;;;4.66;48.91
61963;BME280;47927;42.646;23.096;2023-02-02T00:23:48;92155.31;;;4.61;49.24
61963;BME280;47927;42.646;23.096;2023-02-02T00:26:14;92154.66;;;4.51;49.66
61963;BME280;47927;42.646;23.096;2023-02-02T00:28:40;92150.50;;;4.59;49.27
61963;BME280;47927;42.646;23.096;2023-02-02T00:31:06;92145.78;;;4.73;49.11
61963;BME280;47927;42.646;23.096;2023-02-02T00:33:31;92152.31;;;4.83;49.26
61963;BME280;47927;42.646;23.096;2023-02-02T00:35:57;92158.97;;;4.72;48.94
61963;BME280;47927;42.646;23.096;2023-02-02T00:38:23;92157.28;;;4.76;49.20
61963;BME280;47927;42.646;23.096;2023-02-02T00:40:48;92158.44;;;4.78;49.35
61963;BME280;47927;42.646;23.096;2023-02-02T00:43:14;92159.22;;;4.79;49.31
61963;BME280;47927;42.646;23.096;2023-02-02T00:45:40;92131.44;;;4.51;49.07
61963;BME280;47927;42.646;23.096;2023-02-02T00:48:05;92149.94;;;4.78;48.71
61963;BME280;47927;42.646;23.096;2023-02-02T00:50:31;92137.28;;;4.85;47.70
61963;BME280;47927;42.646;23.096;2023-02-02T00:52:57;92146.06;;;4.96;47.71
61963;BME280;47927;42.646;23.096;2023-02-02T00:55:26;92145.44;;;4.87;48.68
61963;BME280;47927;42.646;23.096;2023-02-02T00:57:51;92136.09;;;4.70;48.47
61963;BME280;47927;42.646;23.096;2023-02-02T01:00:22;92123.28;;;4.62;47.84
61963;BME280;47927;42.646;23.096;2023-02-02T01:02:49;92145.53;;;4.66;47.25
61963;BME280;47927;42.646;23.096;2023-02-02T01:05:15;92153.28;;;4.66;47.94
61963;BME280;47927;42.646;23.096;2023-02-02T01:07:41;92157.47;;;4.59;48.20
61963;BME280;47927;42.646;23.096;2023-02-02T01:10:11;92141.88;;;4.55;48.01
61963;BME280;47927;42.646;23.096;2023-02-02T01:12:38;92141.56;;;4.44;47.94
61963;BME280;47927;42.646;23.096;2023-02-02T01:15:05;92123.88;;;4.22;46.91
61963;BME280;47927;42.646;23.096;2023-02-02T01:17:31;92136.53;;;4.02;48.55
61963;BME280;47927;42.646;23.096;2023-02-02T01:19:58;92141.28;;;3.79;49.52
61963;BME280;47927;42.646;23.096;2023-02-02T01:22:23;92137.00;;;3.83;49.08
61963;BME280;47927;42.646;23.096;2023-02-02T01:24:49;92136.66;;;3.73;49.40
61963;BME280;47927;42.646;23.096;2023-02-02T01:27:15;92135.97;;;3.63;49.78
61963;BME280;47927;42.646;23.096;2023-02-02T01:29:40;92138.56;;;3.63;49.38
61963;BME280;47927;42.646;23.096;2023-02-02T01:32:06;92135.03;;;3.47;50.02
61963;BME280;47927;42.646;23.096;2023-02-02T01:34:32;92145.94;;;3.02;51.23
61963;BME280;47927;42.646;23.096;2023-02-02T01:36:58;92134.59;;;2.73;51.89
61963;BME280;47927;42.646;23.096;2023-02-02T01:39:23;92124.69;;;2.63;52.24
61963;BME280;47927;42.646;23.096;2023-02-02T01:41:49;92107.81;;;2.45;52.21
61963;BME280;47927;42.646;23.096;2023-02-02T01:47:20;92114.09;;;2.65;51.85
61963;BME280;47927;42.646;23.096;2023-02-02T01:49:47;92120.81;;;2.48;52.18
61963;BME280;47927;42.646;23.096;2023-02-02T01:52:14;92122.28;;;2.20;52.93
61963;BME280;47927;42.646;23.096;2023-02-02T01:54:45;92115.31;;;2.29;52.56
61963;BME280;47927;42.646;23.096;2023-02-02T01:57:14;92108.44;;;2.42;51.93
61963;BME280;47927;42.646;23.096;2023-02-02T01:59:41;92105.97;;;2.16;52.76
61963;BME280;47927;42.646;23.096;2023-02-02T02:02:09;92114.19;;;2.00;52.77
61963;BME280;47927;42.646;23.096;2023-02-02T02:04:35;92112.84;;;1.86;53.15
61963;BME280;47927;42.646;23.096;2023-02-02T02:07:02;92115.28;;;1.91;53.00
61963;BME280;47927;42.646;23.096;2023-02-02T02:09:30;92113.13;;;1.93;52.44
61963;BME280;47927;42.646;23.096;2023-02-02T02:11:55;92111.81;;;1.78;52.87
61963;BME280;47927;42.646;23.096;2023-02-02T02:14:21;92116.94;;;1.87;52.51
61963;BME280;47927;42.646;23.096;2023-02-02T02:33:05;92115.31;;;1.04;55.03
61963;BME280;47927;42.646;23.096;2023-02-02T02:35:43;92113.06;;;1.20;54.83
61963;BME280;47927;42.646;23.096;2023-02-02T02:38:35;92121.22;;;1.39;53.83
61963;BME280;47927;42.646;23.096;2023-02-02T02:41:11;92123.28;;;0.76;55.34
61963;BME280;47927;42.646;23.096;2023-02-02T02:43:42;92121.19;;;0.78;55.78
61963;BME280;47927;42.646;23.096;2023-02-02T02:46:10;92109.44;;;1.12;55.09
61963;BME280;47927;42.646;23.096;2023-02-02T02:48:37;92116.97;;;1.00;54.88
61963;BME280;47927;42.646;23.096;2023-02-02T02:51:07;92117.69;;;0.74;55.78
61963;BME280;47927;42.646;23.096;2023-02-02T02:53:35;92105.19;;;0.81;55.43
61963;BME280;47927;42.646;23.096;2023-02-02T02:56:34;92119.06;;;0.80;55.94
61963;BME280;47927;42.646;23.096;2023-02-02T02:59:05;92116.34;;;0.77;56.20
61963;BME280;47927;42.646;23.096;2023-02-02T03:04:54;92110.50;;;1.02;55.52
61963;BME280;47927;42.646;23.096;2023-02-02T03:07:49;92104.59;;;0.84;55.77
61963;BME280;47927;42.646;23.096;2023-02-02T03:10:18;92102.19;;;0.97;54.91
61963;BME280;47927;42.646;23.096;2023-02-02T03:12:47;92102.66;;;0.99;55.04
61963;BME280;47927;42.646;23.096;2023-02-02T03:15:14;92110.50;;;0.94;54.98
61963;BME280;47927;42.646;23.096;2023-02-02T03:17:58;92085.41;;;0.73;55.11
61963;BME280;47927;42.646;23.096;2023-02-02T03:20:24;92101.53;;;0.65;55.15
61963;BME280;47927;42.646;23.096;2023-02-02T03:22:49;92100.19;;;0.67;55.92
61963;BME280;47927;42.646;23.096;2023-02-02T03:25:15;92101.69;;;0.60;56.35
61963;BME280;47927;42.646;23.096;2023-02-02T03:27:41;92096.56;;;0.77;54.90
61963;BME280;47927;42.646;23.096;2023-02-02T03:30:09;92099.16;;;0.86;54.39
61963;BME280;47927;42.646;23.096;2023-02-02T03:32:36;92108.00;;;0.54;54.91
61963;BME280;47927;42.646;23.096;2023-02-02T03:35:02;92102.31;;;0.65;55.34
61963;BME280;47927;42.646;23.096;2023-02-02T03:37:28;92106.09;;;0.77;54.41
61963;BME280;47927;42.646;23.096;2023-02-02T03:40:13;92108.00;;;0.54;54.83
61963;BME280;47927;42.646;23.096;2023-02-02T03:42:39;92102.59;;;0.64;54.73
61963;BME280;47927;42.646;23.096;2023-02-02T03:45:05;92102.44;;;0.60;54.40
61963;BME280;47927;42.646;23.096;2023-02-02T03:47:31;92098.31;;;0.33;55.03
61963;BME280;47927;42.646;23.096;2023-02-02T03:49:57;92112.63;;;-0.06;56.66
61963;BME280;47927;42.646;23.096;2023-02-02T03:52:24;92106.97;;;0.15;57.23
61963;BME280;47927;42.646;23.096;2023-02-02T03:54:50;92104.28;;;0.20;56.26
61963;BME280;47927;42.646;23.096;2023-02-02T03:57:15;92107.88;;;0.10;56.49
61963;BME280;47927;42.646;23.096;2023-02-02T03:59:41;92098.56;;;0.23;56.39
61963;BME280;47927;42.646;23.096;2023-02-02T04:02:06;92111.75;;;0.48;55.69
61963;BME280;47927;42.646;23.096;2023-02-02T04:04:32;92112.22;;;0.50;55.84
61963;BME280;47927;42.646;23.096;2023-02-02T04:06:58;92109.69;;;0.67;54.88
61963;BME280;47927;42.646;23.096;2023-02-02T04:09:24;92116.31;;;0.51;55.10
61963;BME280;47927;42.646;23.096;2023-02-02T04:11:49;92108.16;;;0.09;56.16
61963;BME280;47927;42.646;23.096;2023-02-02T04:14:15;92109.06;;;-0.18;57.36
61963;BME280;47927;42.646;23.096;2023-02-02T04:16:40;92120.16;;;-0.01;57.64
61963;BME280;47927;42.646;23.096;2023-02-02T04:19:06;92105.66;;;-0.14;57.71
61963;BME280;47927;42.646;23.096;2023-02-02T04:21:31;92119.72;;;-0.03;57.47
61963;BME280;47927;42.646;23.096;2023-02-02T04:23:57;92130.44;;;0.08;56.36
61963;BME280;47927;42.646;23.096;2023-02-02T04:26:23;92128.91;;;-0.33;57.98
61963;BME280;47927;42.646;23.096;2023-02-02T04:28:52;92120.75;;;-0.35;58.31
61963;BME280;47927;42.646;23.096;2023-02-02T04:31:18;92125.38;;;-0.14;57.95
61963;BME280;47927;42.646;23.096;2023-02-02T04:33:43;92123.84;;;0.16;57.15
61963;BME280;47927;42.646;23.096;2023-02-02T04:36:09;92115.19;;;0.34;56.14
61963;BME280;47927;42.646;23.096;2023-02-02T04:38:35;92123.66;;;0.43;55.69
61963;BME280;47927;42.646;23.096;2023-02-02T04:41:08;92127.25;;;0.03;56.01
61963;BME280;47927;42.646;23.096;2023-02-02T04:43:35;92126.28;;;-0.41;57.63
61963;BME280;47927;42.646;23.096;2023-02-02T04:46:01;92137.50;;;0.03;56.82
61963;BME280;47927;42.646;23.096;2023-02-02T04:48:27;92115.94;;;-0.05;56.06
61963;BME280;47927;42.646;23.096;2023-02-02T04:51:03;92134.56;;;0.18;55.77
61963;BME280;47927;42.646;23.096;2023-02-02T04:53:29;92140.75;;;-0.14;56.71
61963;BME280;47927;42.646;23.096;2023-02-02T04:55:55;92145.38;;;0.06;56.61
61963;BME280;47927;42.646;23.096;2023-02-02T04:58:21;92120.31;;;-0.06;56.13
61963;BME280;47927;42.646;23.096;2023-02-02T05:00:47;92143.50;;;0.29;55.23
61963;BME280;47927;42.646;23.096;2023-02-02T05:03:13;92140.97;;;0.38;54.97
61963;BME280;47927;42.646;23.096;2023-02-02T05:05:38;92141.13;;;0.33;54.34
61963;BME280;47927;42.646;23.096;2023-02-02T05:08:04;92136.31;;;0.09;55.11
61963;BME280;47927;42.646;23.096;2023-02-02T05:10:30;92141.38;;;-0.09;56.44
61963;BME280;47927;42.646;23.096;2023-02-02T05:12:56;92137.28;;;-0.10;56.52
61963;BME280;47927;42.646;23.096;2023-02-02T05:15:21;92135.47;;;-0.09;56.05
61963;BME280;47927;42.646;23.096;2023-02-02T05:17:48;92139.06;;;0.12;55.56
61963;BME280;47927;42.646;23.096;2023-02-02T05:20:13;92143.00;;;0.18;54.80
61963;BME280;47927;42.646;23.096;2023-02-02T05:22:39;92141.63;;;0.12;54.71
61963;BME280;47927;42.646;23.096;2023-02-02T05:25:06;92138.81;;;-0.09;55.64
61963;BME280;47927;42.646;23.096;2023-02-02T05:27:32;92136.69;;;-0.07;55.58
61963;BME280;47927;42.646;23.096;2023-02-02T05:29:57;92143.69;;;0.02;55.23
61963;BME280;47927;42.646;23.096;2023-02-02T05:32:23;92142.56;;;-0.15;55.47
61963;BME280;47927;42.646;23.096;2023-02-02T05:34:49;92147.53;;;-0.10;55.62
61963;BME280;47927;42.646;23.096;2023-02-02T05:37:14;92144.34;;;-0.15;55.10
61963;BME280;47927;42.646;23.096;2023-02-02T05:39:40;92150.59;;;-0.53;56.72
61963;BME280;47927;42.646;23.096;2023-02-02T05:42:05;92148.53;;;-0.42;57.54
61963;BME280;47927;42.646;23.096;2023-02-02T05:44:31;92149.19;;;-0.14;56.53
61963;BME280;47927;42.646;23.096;2023-02-02T05:46:56;92144.75;;;0.01;55.99
61963;BME280;47927;42.646;23.096;2023-02-02T05:49:22;92132.38;;;0.03;55.41
61963;BME280;47927;42.646;23.096;2023-02-02T05:51:51;92149.06;;;0.22;55.23
61963;BME280;47927;42.646;23.096;2023-02-02T05:54:18;92154.50;;;0.30;54.35
61963;BME280;47927;42.646;23.096;2023-02-02T05:56:48;92153.44;;;0.22;54.62
61963;BME280;47927;42.646;23.096;2023-02-02T05:59:14;92152.22;;;-0.03;56.09
61963;BME280;47927;42.646;23.096;2023-02-02T06:01:42;92164.72;;;-0.10;56.67
61963;BME280;47927;42.646;23.096;2023-02-02T06:04:08;92156.97;;;-0.19;56.96
61963;BME280;47927;42.646;23.096;2023-02-02T06:06:34;92159.41;;;0.17;56.23
61963;BME280;47927;42.646;23.096;2023-02-02T06:09:00;92167.09;;;0.49;55.41
61963;BME280;47927;42.646;23.096;2023-02-02T06:11:26;92163.75;;;0.39;55.03
61963;BME280;47927;42.646;23.096;2023-02-02T06:13:51;92158.25;;;0.63;54.97
61963;BME280;47927;42.646;23.096;2023-02-02T06:16:17;92159.53;;;0.83;55.00
61963;BME280;47927;42.646;23.096;2023-02-02T06:18:43;92166.72;;;2.97;51.18
61963;BME280;47927;42.646;23.096;2023-02-02T06:21:09;92177.56;;;5.39;45.70
61963;BME280;47927;42.646;23.096;2023-02-02T06:23:35;92180.59;;;7.01;41.85
61963;BME280;47927;42.646;23.096;2023-02-02T06:26:01;92174.22;;;6.51;41.62
61963;BME280;47927;42.646;23.096;2023-02-02T06:28:29;92178.16;;;6.92;42.20
61963;BME280;47927;42.646;23.096;2023-02-02T06:30:55;92181.63;;;7.67;39.90
61963;BME280;47927;42.646;23.096;2023-02-02T06:33:20;92182.66;;;8.01;39.94
61963;BME280;47927;42.646;23.096;2023-02-02T06:35:46;92188.53;;;8.83;39.03
61963;BME280;47927;42.646;23.096;2023-02-02T06:38:11;92180.69;;;7.94;39.64
61963;BME280;47927;42.646;23.096;2023-02-02T06:40:37;92177.34;;;6.72;41.76
61963;BME280;47927;42.646;23.096;2023-02-02T06:43:02;92191.34;;;5.83;42.94
61963;BME280;47927;42.646;23.096;2023-02-02T06:45:29;92191.91;;;5.12;44.91
61963;BME280;47927;42.646;23.096;2023-02-02T06:47:59;92199.78;;;4.91;45.55
61963;BME280;47927;42.646;23.096;2023-02-02T06:50:28;92196.19;;;4.59;46.66
61963;BME280;47927;42.646;23.096;2023-02-02T06:52:54;92199.03;;;4.32;47.46
61963;BME280;47927;42.646;23.096;2023-02-02T06:55:19;92200.97;;;4.36;47.48
61963;BME280;47927;42.646;23.096;2023-02-02T06:57:45;92193.84;;;4.20;47.79
61963;BME280;47927;42.646;23.096;2023-02-02T07:00:12;92205.56;;;4.30;48.42
61963;BME280;47927;42.646;23.096;2023-02-02T07:02:37;92186.31;;;4.27;48.95
61963;BME280;47927;42.646;23.096;2023-02-02T07:05:03;92200.63;;;4.70;48.54
61963;BME280;47927;42.646;23.096;2023-02-02T07:07:33;92194.59;;;4.91;47.94
61963;BME280;47927;42.646;23.096;2023-02-02T07:09:59;92192.66;;;5.00;48.43
61963;BME280;47927;42.646;23.096;2023-02-02T07:12:25;92194.59;;;5.03;48.26
61963;BME280;47927;42.646;23.096;2023-02-02T07:14:52;92201.69;;;5.06;48.12
61963;BME280;47927;42.646;23.096;2023-02-02T07:17:18;92179.13;;;5.03;48.30
61963;BME280;47927;42.646;23.096;2023-02-02T07:19:43;92203.94;;;5.20;48.60
61963;BME280;47927;42.646;23.096;2023-02-02T07:22:09;92202.00;;;5.29;48.41
61963;BME280;47927;42.646;23.096;2023-02-02T07:24:34;92205.03;;;5.19;48.79
61963;BME280;47927;42.646;23.096;2023-02-02T07:27:03;92205.97;;;5.39;48.52
61963;BME280;47927;42.646;23.096;2023-02-02T07:29:29;92202.63;;;5.51;48.27
61963;BME280;47927;42.646;23.096;2023-02-02T07:35:42;92198.91;;;5.23;49.40
61963;BME280;47927;42.646;23.096;2023-02-02T07:38:08;92189.94;;;5.33;49.32
61963;BME280;47927;42.646;23.096;2023-02-02T07:40:33;92187.50;;;5.77;48.56
61963;BME280;47927;42.646;23.096;2023-02-02T07:42:59;92171.63;;;7.49;46.08
61963;BME280;47927;42.646;23.096;2023-02-02T07:45:26;92174.63;;;8.95;42.28
61963;BME280;47927;42.646;23.096;2023-02-02T07:47:58;92176.66;;;9.05;41.23
61963;BME280;47927;42.646;23.096;2023-02-02T07:50:25;92170.41;;;8.40;40.61
61963;BME280;47927;42.646;23.096;2023-02-02T07:52:51;92170.75;;;7.61;41.52
61963;BME280;47927;42.646;23.096;2023-02-02T07:55:17;92155.03;;;7.35;41.67
61963;BME280;47927;42.646;23.096;2023-02-02T07:57:43;92146.84;;;7.33;41.09
61963;BME280;47927;42.646;23.096;2023-02-02T08:00:09;92157.53;;;7.86;40.72
61963;BME280;47927;42.646;23.096;2023-02-02T08:02:37;92177.00;;;7.95;41.19
61963;BME280;47927;42.646;23.096;2023-02-02T08:05:03;92177.38;;;8.36;41.21
61963;BME280;47927;42.646;23.096;2023-02-02T08:07:33;92173.13;;;8.48;40.73
61963;BME280;47927;42.646;23.096;2023-02-02T08:09:59;92169.47;;;9.21;39.01
61963;BME280;47927;42.646;23.096;2023-02-02T08:12:24;92162.16;;;11.03;35.78
61963;BME280;47927;42.646;23.096;2023-02-02T08:14:51;92162.34;;;11.31;34.91
61963;BME280;47927;42.646;23.096;2023-02-02T08:17:16;92156.59;;;12.79;33.35
61963;BME280;47927;42.646;23.096;2023-02-02T08:19:43;92156.81;;;13.88;30.25
61963;BME280;47927;42.646;23.096;2023-02-02T08:22:08;92140.13;;;14.42;29.12
61963;BME280;47927;42.646;23.096;2023-02-02T08:24:52;92157.34;;;14.39;29.97
61963;BME280;47927;42.646;23.096;2023-02-02T08:27:17;92147.50;;;15.20;28.56
61963;BME280;47927;42.646;23.096;2023-02-02T08:29:43;92153.84;;;15.61;28.36
61963;BME280;47927;42.646;23.096;2023-02-02T08:32:09;92159.72;;;14.89;27.17
61963;BME280;47927;42.646;23.096;2023-02-02T08:34:34;92159.56;;;13.24;30.24
61963;BME280;47927;42.646;23.096;2023-02-02T08:37:02;92153.94;;;12.65;30.80
61963;BME280;47927;42.646;23.096;2023-02-02T08:39:27;92155.41;;;11.53;32.08
61963;BME280;47927;42.646;23.096;2023-02-02T08:41:54;92147.06;;;10.78;33.49
61963;BME280;47927;42.646;23.096;2023-02-02T08:44:20;92145.47;;;11.11;32.75
61963;BME280;47927;42.646;23.096;2023-02-02T08:46:45;92143.88;;;13.13;32.24
61963;BME280;47927;42.646;23.096;2023-02-02T08:49:12;92145.75;;;12.98;30.93
61963;BME280;47927;42.646;23.096;2023-02-02T08:51:38;92136.41;;;12.62;30.67
61963;BME280;47927;42.646;23.096;2023-02-02T08:54:03;92127.81;;;12.75;31.03
61963;BME280;47927;42.646;23.096;2023-02-02T08:56:29;92136.38;;;13.22;31.59
61963;BME280;47927;42.646;23.096;2023-02-02T08:58:56;92136.06;;;11.61;32.60
61963;BME280;47927;42.646;23.096;2023-02-02T09:01:29;92137.53;;;13.00;30.35
61963;BME280;47927;42.646;23.096;2023-02-02T09:04:00;92141.56;;;12.29;31.62
61963;BME280;47927;42.646;23.096;2023-02-02T09:06:32;92142.00;;;11.55;32.61
61963;BME280;47927;42.646;23.096;2023-02-02T09:08:59;92133.97;;;11.85;32.16
61963;BME280;47927;42.646;23.096;2023-02-02T09:11:24;92131.66;;;11.76;32.66
61963;BME280;47927;42.646;23.096;2023-02-02T09:13:53;92133.75;;;12.44;31.19
61963;BME280;47927;42.646;23.096;2023-02-02T09:16:20;92137.22;;;11.75;31.79
61963;BME280;47927;42.646;23.096;2023-02-02T09:18:45;92122.34;;;11.75;32.32
61963;BME280;47927;42.646;23.096;2023-02-02T09:21:13;92126.31;;;12.57;31.79
61963;BME280;47927;42.646;23.096;2023-02-02T09:23:40;92118.81;;;13.41;29.78
61963;BME280;47927;42.646;23.096;2023-02-02T09:28:47;92104.66;;;13.10;31.83
61963;BME280;47927;42.646;23.096;2023-02-02T09:31:13;92116.47;;;12.00;31.40
61963;BME280;47927;42.646;23.096;2023-02-02T09:33:39;92085.78;;;11.72;32.31
61963;BME280;47927;42.646;23.096;2023-02-02T09:36:27;92114.34;;;10.81;33.92
61963;BME280;47927;42.646;23.096;2023-02-02T09:38:52;92098.94;;;11.20;33.99
61963;BME280;47927;42.646;23.096;2023-02-02T09:47:21;92105.63;;;13.77;30.87
61963;BME280;47927;42.646;23.096;2023-02-02T09:52:55;92097.16;;;12.40;31.85
61963;BME280;47927;42.646;23.096;2023-02-02T09:55:34;92093.28;;;11.84;33.22
61963;BME280;47927;42.646;23.096;2023-02-02T10:01:28;92062.41;;;13.18;30.66
61963;BME280;47927;42.646;23.096;2023-02-02T10:06:38;92075.97;;;13.98;30.04
61963;BME280;47927;42.646;23.096;2023-02-02T10:14:30;92060.63;;;14.63;30.62
61963;BME280;47927;42.646;23.096;2023-02-02T10:17:06;92065.25;;;14.41;32.36
61963;BME280;47927;42.646;23.096;2023-02-02T10:19:35;92079.19;;;13.46;32.10
61963;BME280;47927;42.646;23.096;2023-02-02T10:22:08;92080.75;;;13.04;34.93
61963;BME280;47927;42.646;23.096;2023-02-02T10:24:36;92057.78;;;11.65;34.27
61963;BME280;47927;42.646;23.096;2023-02-02T10:27:13;92059.31;;;11.80;35.77
61963;BME280;47927;42.646;23.096;2023-02-02T10:29:59;92066.56;;;12.26;32.59
61963;BME280;47927;42.646;23.096;2023-02-02T10:32:27;92065.72;;;11.06;34.97
61963;BME280;47927;42.646;23.096;2023-02-02T10:38:07;92054.56;;;11.09;34.85
61963;BME280;47927;42.646;23.096;2023-02-02T10:48:47;92028.50;;;10.47;35.49
61963;BME280;47927;42.646;23.096;2023-02-02T10:51:26;92004.16;;;10.84;37.38
61963;BME280;47927;42.646;23.096;2023-02-02T10:53:54;92018.97;;;11.49;35.20
61963;BME280;47927;42.646;23.096;2023-02-02T10:56:36;92013.94;;;11.05;35.42
61963;BME280;47927;42.646;23.096;2023-02-02T10:59:10;92011.66;;;10.34;35.10
61963;BME280;47927;42.646;23.096;2023-02-02T11:01:36;92014.03;;;10.09;36.22
61963;BME280;47927;42.646;23.096;2023-02-02T11:04:02;91979.28;;;9.90;36.63
61963;BME280;47927;42.646;23.096;2023-02-02T11:06:47;92007.09;;;10.79;35.12
61963;BME280;47927;42.646;23.096;2023-02-02T11:09:22;92001.72;;;9.65;36.98
61963;BME280;47927;42.646;23.096;2023-02-02T11:11:54;91986.66;;;9.44;37.29
61963;BME280;47927;42.646;23.096;2023-02-02T11:17:03;91993.50;;;10.00;36.09
61963;BME280;47927;42.646;23.096;2023-02-02T11:19:31;91996.41;;;10.36;37.43
61963;BME280;47927;42.646;23.096;2023-02-02T11:21:59;92004.00;;;10.59;37.61
61963;BME280;47927;42.646;23.096;2023-02-02T11:24:31;91978.31;;;11.30;35.19
61963;BME280;47927;42.646;23.096;2023-02-02T11:27:11;91984.16;;;11.06;36.32
61963;BME280;47927;42.646;23.096;2023-02-02T11:32:35;91990.41;;;11.92;35.69
61963;BME280;47927;42.646;23.096;2023-02-02T11:35:21;91965.38;;;11.70;35.50
61963;BME280;47927;42.646;23.096;2023-02-02T11:41:19;91975.88;;;12.20;35.13
61963;BME280;47927;42.646;23.096;2023-02-02T11:43:49;91974.34;;;11.86;37.39
61963;BME280;47927;42.646;23.096;2023-02-02T11:46:19;91966.09;;;11.77;35.63
61963;BME280;47927;42.646;23.096;2023-02-02T11:51:25;91971.75;;;11.86;33.78
61963;BME280;47927;42.646;23.096;2023-02-02T11:57:07;91958.88;;;11.13;34.70
61963;BME280;47927;42.646;23.096;2023-02-02T12:00:15;91954.59;;;10.18;34.65
61963;BME280;47927;42.646;23.096;2023-02-02T12:02:46;91949.59;;;10.46;36.91
61963;BME280;47927;42.646;23.096;2023-02-02T12:05:31;91941.41;;;10.44;36.56
61963;BME280;47927;42.646;23.096;2023-02-02T12:07:57;91938.16;;;10.10;34.83
61963;BME280;47927;42.646;23.096;2023-02-02T12:10:34;91940.91;;;10.94;35.72
61963;BME280;47927;42.646;23.096;2023-02-02T12:23:58;91929.22;;;10.63;33.20
61963;BME280;47927;42.646;23.096;2023-02-02T12:26:31;91927.78;;;10.14;33.71
61963;BME280;47927;42.646;23.096;2023-02-02T12:49:14;91906.44;;;10.45;35.48
61963;BME280;47927;42.646;23.096;2023-02-02T12:57:46;91918.91;;;10.84;34.36
61963;BME280;47927;42.646;23.096;2023-02-02T13:00:30;91921.38;;;10.00;36.61
61963;BME280;47927;42.646;23.096;2023-02-02T13:03:37;91929.38;;;9.81;36.73
61963;BME280;47927;42.646;23.096;2023-02-02T13:06:22;91933.38;;;10.16;37.11
61963;BME280;47927;42.646;23.096;2023-02-02T13:08:55;91928.44;;;10.59;37.70
61963;BME280;47927;42.646;23.096;2023-02-02T13:14:34;91926.72;;;10.88;35.85
61963;BME280;47927;42.646;23.096;2023-02-02T13:17:08;91927.38;;;10.67;37.01
61963;BME280;47927;42.646;23.096;2023-02-02T13:19:51;91929.31;;;10.77;37.07
61963;BME280;47927;42.646;23.096;2023-02-02T13:22:23;91916.03;;;10.34;36.61
61963;BME280;47927;42.646;23.096;2023-02-02T13:24:52;91938.34;;;9.84;37.18
61963;BME280;47927;42.646;23.096;2023-02-02T13:27:20;91939.31;;;9.31;38.39
61963;BME280;47927;42.646;23.096;2023-02-02T13:30:12;91904.78;;;9.30;38.52
61963;BME280;47927;42.646;23.096;2023-02-02T13:32:42;91953.00;;;9.24;39.24
61963;BME280;47927;42.646;23.096;2023-02-02T13:35:22;91946.19;;;8.79;40.87
61963;BME280;47927;42.646;23.096;2023-02-02T13:40:44;91951.84;;;8.58;44.75
61963;BME280;47927;42.646;23.096;2023-02-02T13:46:08;91963.91;;;8.20;45.81
61963;BME280;47927;42.646;23.096;2023-02-02T14:05:27;91966.69;;;7.85;46.86
61963;BME280;47927;42.646;23.096;2023-02-02T14:07:59;91971.66;;;7.70;47.07
61963;BME280;47927;42.646;23.096;2023-02-02T14:10:33;91969.88;;;7.97;47.26
61963;BME280;47927;42.646;23.096;2023-02-02T14:13:21;91960.63;;;8.00;46.69
61963;BME280;47927;42.646;23.096;2023-02-02T14:16:19;91962.25;;;7.62;47.71
61963;BME280;47927;42.646;23.096;2023-02-02T14:24:03;91958.16;;;7.84;47.79
61963;BME280;47927;42.646;23.096;2023-02-02T14:26:39;91958.06;;;7.35;48.89
61963;BME280;47927;42.646;23.096;2023-02-02T14:34:53;91950.84;;;7.67;48.56
61963;BME280;47927;42.646;23.096;2023-02-02T14:40:29;91931.31;;;7.50;49.56
61963;BME280;47927;42.646;23.096;2023-02-02T14:43:31;91983.13;;;7.92;48.67
61963;BME280;47927;42.646;23.096;2023-02-02T14:48:41;92017.94;;;8.14;48.82
61963;BME280;47927;42.646;23.096;2023-02-02T14:51:28;92020.13;;;7.89;49.44
61963;BME280;47927;42.646;23.096;2023-02-02T14:53:57;92018.25;;;7.05;51.83
61963;BME280;47927;42.646;23.096;2023-02-02T14:56:45;92020.28;;;6.45;54.49
61963;BME280;47927;42.646;23.096;2023-02-02T14:59:38;92036.28;;;6.31;55.08
61963;BME280;47927;42.646;23.096;2023-02-02T15:04:34;92051.59;;;5.92;56.87
61963;BME280;47927;42.646;23.096;2023-02-02T15:09:50;92056.69;;;5.60;58.07
61963;BME280;47927;42.646;23.096;2023-02-02T15:12:38;92059.97;;;4.27;61.97
61963;BME280;47927;42.646;23.096;2023-02-02T15:15:13;92089.13;;;3.82;64.32
61963;BME280;47927;42.646;23.096;2023-02-02T15:25:28;92072.19;;;3.48;65.38
61963;BME280;47927;42.646;23.096;2023-02-02T15:28:31;92089.84;;;3.37;65.72
61963;BME280;47927;42.646;23.096;2023-02-02T15:33:48;92097.53;;;3.58;65.22
61963;BME280;47927;42.646;23.096;2023-02-02T15:36:19;92097.09;;;3.56;64.23
61963;BME280;47927;42.646;23.096;2023-02-02T15:38:49;92090.81;;;3.24;64.84
61963;BME280;47927;42.646;23.096;2023-02-02T15:41:31;92095.13;;;3.53;64.29
61963;BME280;47927;42.646;23.096;2023-02-02T15:43:59;92078.16;;;3.73;62.75
61963;BME280;47927;42.646;23.096;2023-02-02T15:46:28;92097.03;;;3.77;62.13
61963;BME280;47927;42.646;23.096;2023-02-02T15:51:45;92119.25;;;3.70;62.24
61963;BME280;47927;42.646;23.096;2023-02-02T15:54:31;92107.03;;;3.46;62.97
61963;BME280;47927;42.646;23.096;2023-02-02T15:56:59;92112.06;;;3.21;63.94
61963;BME280;47927;42.646;23.096;2023-02-02T15:59:28;92116.19;;;2.92;64.37
61963;BME280;47927;42.646;23.096;2023-02-02T16:02:20;92108.34;;;3.52;63.26
61963;BME280;47927;42.646;23.096;2023-02-02T16:04:42;92105.47;;;3.32;63.18
61963;BME280;47927;42.646;23.096;2023-02-02T16:07:14;92117.78;;;3.27;62.99